Time;durP1;ratioP1;P1;durP2;ratioP2;P2;SDS_P1;SDS_P2;PMS_P1;PMS_P2;Temp;Humidity;BMP_temperature;BMP_pressure;BME280_temperature;BME280_humidity;BME280_pressure;Samples;Min_cycle;Max_cycle;Signal;HPM_P1;HPM_P2
2023/01/17 00:01:59;;;;;;;1.42;1.33;;;7.80;80.90;;;;;;5055143;28;20037;-90
2023/01/17 00:09:59;;;;;;;1.38;1.30;;;7.70;80.80;;;;;;5055976;28;20108;-89
2023/01/17 00:12:29;;;;;;;1.15;1.15;;;7.70;80.80;;;;;;5070877;28;20021;-89
2023/01/17 00:14:56;;;;;;;1.60;1.50;;;7.70;80.90;;;;;;5052303;28;20029;-88
2023/01/17 00:17:23;;;;;;;1.42;1.38;;;7.70;80.90;;;;;;5053427;28;20112;-88
2023/01/17 01:35:12;;;;;;;1.73;1.20;;;7.50;80.80;;;;;;5078328;28;20119;-89
2023/01/17 01:37:37;;;;;;;2.22;1.30;;;7.50;80.90;;;;;;5043450;28;20594;-89
2023/01/17 01:40:04;;;;;;;2.10;1.30;;;7.50;80.90;;;;;;5058251;28;20040;-90
2023/01/17 01:42:30;;;;;;;1.30;1.20;;;7.50;80.90;;;;;;5060659;28;20028;-89
2023/01/17 01:44:55;;;;;;;1.30;1.20;;;7.50;80.90;;;;;;5073903;28;20529;-88
2023/01/17 01:47:35;;;;;;;1.85;1.30;;;7.50;80.90;;;;;;5058106;28;20035;-88
2023/01/17 01:50:05;;;;;;;1.20;1.20;;;7.50;80.90;;;;;;5073963;28;20020;-89
2023/01/17 01:52:35;;;;;;;1.40;1.30;;;7.50;80.90;;;;;;5075316;28;20066;-88
2023/01/17 01:55:09;;;;;;;1.40;1.30;;;7.50;80.90;;;;;;5088466;28;20028;-89
2023/01/17 01:57:40;;;;;;;1.80;1.42;;;7.50;81.60;;;;;;5076312;28;20109;-89
2023/01/17 02:00:13;;;;;;;1.23;1.23;;;7.40;80.80;;;;;;5066877;28;20102;-89
2023/01/17 02:02:40;;;;;;;1.85;1.20;;;7.40;80.80;;;;;;5092154;28;20036;-90
2023/01/17 02:05:07;;;;;;;1.30;1.20;;;7.40;80.80;;;;;;5077083;28;20032;-88
2023/01/17 02:07:42;;;;;;;1.27;1.20;;;7.40;80.90;;;;;;5066791;28;20244;-89
2023/01/17 02:10:08;;;;;;;1.20;1.20;;;7.40;80.90;;;;;;5076818;28;20028;-89
2023/01/17 02:12:34;;;;;;;1.30;1.30;;;7.40;80.90;;;;;;5064615;28;20174;-89
2023/01/17 02:15:01;;;;;;;1.60;1.50;;;7.40;80.90;;;;;;5060652;28;20036;-90
2023/01/17 02:17:53;;;;;;;1.23;1.20;;;7.40;80.90;;;;;;5075598;28;20024;-89
2023/01/17 02:20:40;;;;;;;1.73;1.20;;;7.40;80.90;;;;;;5091534;28;20036;-89
2023/01/17 02:23:37;;;;;;;1.10;1.10;;;7.30;80.80;;;;;;5063664;28;20032;-89
2023/01/17 02:26:05;;;;;;;1.27;1.20;;;7.30;80.80;;;;;;5095012;28;20038;-88
2023/01/17 02:28:55;;;;;;;1.45;1.35;;;7.30;80.80;;;;;;5079045;28;20443;-89
2023/01/17 02:31:29;;;;;;;1.10;1.10;;;7.30;80.90;;;;;;5078891;28;20107;-89
2023/01/17 02:33:58;;;;;;;1.10;1.10;;;7.30;80.90;;;;;;5060927;28;20042;-89
2023/01/17 02:36:23;;;;;;;1.30;1.30;;;7.30;80.90;;;;;;5074946;28;20439;-87
2023/01/17 02:39:03;;;;;;;1.40;1.30;;;7.20;80.80;;;;;;5080252;28;20024;-89
2023/01/17 02:41:35;;;;;;;1.50;1.40;;;7.20;80.90;;;;;;5066995;28;20032;-87
2023/01/17 02:44:02;;;;;;;1.40;1.30;;;7.20;80.80;;;;;;5078723;28;20028;-89
2023/01/17 02:46:28;;;;;;;1.20;1.20;;;7.20;80.90;;;;;;5082612;28;20028;-88
2023/01/17 02:48:56;;;;;;;1.40;1.30;;;7.20;80.90;;;;;;5074660;28;20530;-88
2023/01/17 02:51:43;;;;;;;1.48;1.38;;;7.10;80.90;;;;;;5081262;28;20021;-89
2023/01/17 02:55:00;;;;;;;1.10;1.10;;;7.20;80.90;;;;;;5056595;28;20066;-89
2023/01/17 02:57:41;;;;;;;1.20;1.20;;;7.10;80.80;;;;;;4990801;28;20040;-88
2023/01/17 03:00:24;;;;;;;1.42;1.33;;;7.10;80.90;;;;;;4984369;28;20497;-88
2023/01/17 03:03:27;;;;;;;1.48;1.38;;;7.10;80.90;;;;;;5050869;28;20040;-88
2023/01/17 03:06:10;;;;;;;1.13;1.13;;;7.00;80.90;;;;;;5073828;28;20127;-90
2023/01/17 03:08:42;;;;;;;1.25;1.20;;;7.00;80.90;;;;;;5072168;28;20020;-89
2023/01/17 03:11:09;;;;;;;1.40;1.30;;;7.00;80.90;;;;;;5076526;28;20069;-89
2023/01/17 03:13:36;;;;;;;1.23;1.20;;;7.00;80.90;;;;;;5080500;28;20040;-88
2023/01/17 03:16:15;;;;;;;1.20;1.20;;;7.00;80.90;;;;;;5077583;28;20043;-89
2023/01/17 03:18:41;;;;;;;1.35;1.30;;;7.00;80.90;;;;;;5078152;28;20020;-88
2023/01/17 03:21:07;;;;;;;1.25;1.20;;;7.00;80.80;;;;;;5074262;28;20055;-89
2023/01/17 03:23:33;;;;;;;1.40;1.40;;;7.00;80.80;;;;;;5064709;28;20039;-89
2023/01/17 03:25:58;;;;;;;1.20;1.20;;;7.00;80.80;;;;;;5073444;28;20024;-90
2023/01/17 03:28:24;;;;;;;2.05;1.40;;;6.90;80.80;;;;;;5043788;28;20115;-89
2023/01/17 03:30:50;;;;;;;1.20;1.20;;;7.00;80.80;;;;;;5058845;28;20042;-89
2023/01/17 03:33:17;;;;;;;1.30;1.30;;;6.90;80.80;;;;;;5057250;28;20054;-90
2023/01/17 03:35:47;;;;;;;1.52;1.40;;;6.90;80.80;;;;;;5080848;28;20050;-89
2023/01/17 03:38:14;;;;;;;2.58;1.63;;;6.90;80.80;;;;;;5089046;28;20059;-88
2023/01/17 03:40:40;;;;;;;1.55;1.30;;;6.90;80.80;;;;;;5067404;28;20114;-89
2023/01/17 03:43:06;;;;;;;1.25;1.20;;;6.90;80.80;;;;;;5061614;28;20031;-89
2023/01/17 03:45:32;;;;;;;1.40;1.30;;;6.90;80.80;;;;;;5080257;28;20039;-88
2023/01/17 03:47:58;;;;;;;1.20;1.17;;;6.90;80.80;;;;;;5086535;28;20055;-89
2023/01/17 03:50:25;;;;;;;1.38;1.27;;;6.80;80.70;;;;;;5095126;28;20031;-89
2023/01/17 03:52:50;;;;;;;1.40;1.30;;;6.80;80.70;;;;;;5102381;28;20100;-89
2023/01/17 03:55:16;;;;;;;1.50;1.40;;;6.80;80.70;;;;;;5078256;28;20458;-90
2023/01/17 03:57:42;;;;;;;1.20;1.20;;;6.80;80.70;;;;;;5077380;28;20027;-89
2023/01/17 04:00:09;;;;;;;1.40;1.30;;;6.80;80.80;;;;;;5055699;28;20024;-89
2023/01/17 04:02:35;;;;;;;1.20;1.15;;;6.80;80.80;;;;;;5080414;28;20028;-89
2023/01/17 04:05:01;;;;;;;1.25;1.20;;;6.70;80.70;;;;;;5095694;28;20032;-89
2023/01/17 04:07:27;;;;;;;1.60;1.50;;;6.70;80.70;;;;;;5086292;28;20036;-89
2023/01/17 04:09:53;;;;;;;1.20;1.20;;;6.70;80.70;;;;;;5064849;28;20499;-90
2023/01/17 04:12:19;;;;;;;1.48;1.38;;;6.70;80.70;;;;;;5083456;28;20032;-87
2023/01/17 04:14:45;;;;;;;1.30;1.30;;;6.70;80.70;;;;;;5067704;28;20032;-88
2023/01/17 04:17:12;;;;;;;1.40;1.30;;;6.70;80.70;;;;;;5062541;28;20024;-89
2023/01/17 04:19:38;;;;;;;1.75;1.65;;;6.70;80.70;;;;;;5065699;28;20047;-88
2023/01/17 04:22:03;;;;;;;1.20;1.13;;;6.70;80.70;;;;;;5078111;28;20032;-89
2023/01/17 04:24:29;;;;;;;1.50;1.40;;;6.60;80.70;;;;;;5057703;28;20032;-88
2023/01/17 04:26:55;;;;;;;1.42;1.38;;;6.60;80.70;;;;;;5093643;28;20067;-89
2023/01/17 04:29:21;;;;;;;1.45;1.35;;;6.60;80.70;;;;;;5076384;28;20906;-88
2023/01/17 04:31:47;;;;;;;1.40;1.30;;;6.60;80.70;;;;;;5078083;28;20035;-90
2023/01/17 04:34:13;;;;;;;1.30;1.20;;;6.60;80.80;;;;;;5071633;28;20364;-88
2023/01/17 04:36:39;;;;;;;1.48;1.38;;;6.50;80.70;;;;;;5078522;28;20045;-88
2023/01/17 04:39:06;;;;;;;1.50;1.40;;;6.50;80.70;;;;;;5082137;28;20028;-88
2023/01/17 04:41:32;;;;;;;1.60;1.50;;;6.50;80.70;;;;;;5078025;28;20059;-88
2023/01/17 04:43:58;;;;;;;1.33;1.33;;;6.50;80.70;;;;;;5080254;28;20028;-87
2023/01/17 04:46:23;;;;;;;1.60;1.50;;;6.50;80.80;;;;;;5074840;28;20039;-88
2023/01/17 04:48:49;;;;;;;1.73;1.50;;;6.50;80.80;;;;;;5062465;28;20035;-87
2023/01/17 04:51:15;;;;;;;1.60;1.50;;;6.40;80.70;;;;;;5076754;28;20032;-88
2023/01/17 04:53:41;;;;;;;1.67;1.58;;;6.40;80.70;;;;;;5106637;28;20160;-90
2023/01/17 04:56:07;;;;;;;1.63;1.52;;;6.40;80.70;;;;;;5065015;28;20024;-88
2023/01/17 04:58:33;;;;;;;1.92;1.70;;;6.40;80.70;;;;;;5076279;28;20165;-87
2023/01/17 05:01:06;;;;;;;1.40;1.30;;;6.40;80.70;;;;;;5079169;28;20114;-89
2023/01/17 05:03:33;;;;;;;1.60;1.50;;;6.40;80.70;;;;;;5074768;28;20072;-87
2023/01/17 05:05:59;;;;;;;1.70;1.60;;;6.40;80.70;;;;;;5064974;28;20307;-87
2023/01/17 05:08:25;;;;;;;2.42;1.40;;;6.30;80.70;;;;;;5088724;28;20035;-87
2023/01/17 05:10:51;;;;;;;2.25;1.50;;;6.30;81.30;;;;;;5078767;28;20035;-86
2023/01/17 05:13:17;;;;;;;1.50;1.40;;;6.30;80.70;;;;;;5060255;28;20031;-86
2023/01/17 05:15:44;;;;;;;1.88;1.77;;;6.30;80.70;;;;;;5061581;28;20035;-86
2023/01/17 05:18:17;;;;;;;1.52;1.42;;;6.30;80.70;;;;;;5079796;28;20468;-85
2023/01/17 05:20:43;;;;;;;1.75;1.60;;;6.30;80.70;;;;;;5065345;28;20123;-88
2023/01/17 05:23:09;;;;;;;1.50;1.40;;;6.30;80.70;;;;;;5064915;28;20027;-88
2023/01/17 05:25:35;;;;;;;1.42;1.33;;;6.20;80.70;;;;;;5077582;28;20016;-87
2023/01/17 05:28:02;;;;;;;1.80;1.70;;;6.20;80.60;;;;;;5095788;28;20111;-88
2023/01/17 05:30:30;;;;;;;1.70;1.60;;;6.20;80.70;;;;;;5074278;28;20039;-87
2023/01/17 05:32:57;;;;;;;1.80;1.70;;;6.20;80.70;;;;;;5059387;28;20028;-84
2023/01/17 05:35:27;;;;;;;1.58;1.48;;;6.20;80.70;;;;;;5074366;28;20032;-85
2023/01/17 05:37:53;;;;;;;1.48;1.38;;;6.20;80.70;;;;;;5077083;28;20028;-85
2023/01/17 05:40:21;;;;;;;1.60;1.50;;;6.20;80.70;;;;;;5056917;28;20131;-83
2023/01/17 05:42:52;;;;;;;1.73;1.58;;;6.20;80.70;;;;;;5056995;28;20115;-86
2023/01/17 05:45:20;;;;;;;1.67;1.58;;;6.10;80.70;;;;;;5074411;28;20024;-85
2023/01/17 05:47:47;;;;;;;2.47;1.80;;;6.20;80.70;;;;;;5078950;28;20068;-88
2023/01/17 05:50:15;;;;;;;3.38;1.65;;;6.10;80.60;;;;;;5071505;28;20031;-86
2023/01/17 05:52:47;;;;;;;1.60;1.50;;;6.10;80.60;;;;;;5072918;28;20110;-86
2023/01/17 05:55:13;;;;;;;2.00;1.80;;;6.10;80.60;;;;;;5057143;28;20577;-87
2023/01/17 05:57:39;;;;;;;1.52;1.42;;;6.10;80.60;;;;;;5059870;28;20115;-86
2023/01/17 06:00:05;;;;;;;2.03;1.80;;;6.10;80.60;;;;;;5062975;28;20024;-86
2023/01/17 06:02:31;;;;;;;1.50;1.40;;;6.10;80.60;;;;;;5059133;28;20075;-86
2023/01/17 06:04:57;;;;;;;1.70;1.60;;;6.10;80.70;;;;;;5059892;28;20032;-86
2023/01/17 06:07:22;;;;;;;1.70;1.60;;;6.00;80.60;;;;;;5063464;28;20355;-85
2023/01/17 06:09:48;;;;;;;1.70;1.60;;;6.00;80.60;;;;;;5062858;28;20024;-86
2023/01/17 06:12:14;;;;;;;1.85;1.75;;;6.00;80.60;;;;;;5058879;28;20062;-88
2023/01/17 06:14:40;;;;;;;1.67;1.58;;;6.00;80.60;;;;;;5059713;28;20036;-84
2023/01/17 06:17:06;;;;;;;2.15;1.80;;;6.00;80.60;;;;;;5060804;28;20016;-83
2023/01/17 06:19:31;;;;;;;2.10;1.90;;;6.00;80.60;;;;;;5060217;28;20051;-81
2023/01/17 06:21:57;;;;;;;1.63;1.52;;;6.00;80.60;;;;;;5074075;28;20074;-88
2023/01/17 06:24:23;;;;;;;1.70;1.60;;;6.00;80.60;;;;;;5074055;28;20055;-85
2023/01/17 06:26:49;;;;;;;1.85;1.70;;;6.00;80.60;;;;;;5065556;28;20041;-81
2023/01/17 06:29:15;;;;;;;2.00;1.90;;;5.90;80.50;;;;;;5048051;28;20070;-84
2023/01/17 06:31:40;;;;;;;2.00;1.80;;;6.00;80.60;;;;;;5076492;28;20384;-86
2023/01/17 06:34:06;;;;;;;1.75;1.65;;;5.90;80.50;;;;;;5085386;28;20035;-84
2023/01/17 06:36:32;;;;;;;1.67;1.58;;;5.90;80.50;;;;;;5065379;28;20044;-86
2023/01/17 06:38:58;;;;;;;1.70;1.58;;;5.90;80.50;;;;;;5089122;28;20092;-85
2023/01/17 06:41:24;;;;;;;1.70;1.60;;;5.90;80.60;;;;;;5075813;28;20032;-85
2023/01/17 06:43:54;;;;;;;2.08;1.88;;;5.80;80.60;;;;;;5041619;28;20621;-84
2023/01/17 06:46:20;;;;;;;4.35;2.03;;;5.90;80.60;;;;;;5072929;28;20548;-84
2023/01/17 06:48:47;;;;;;;2.00;1.80;;;5.80;80.60;;;;;;5064404;28;20024;-84
2023/01/17 06:51:13;;;;;;;1.70;1.60;;;5.80;80.50;;;;;;5095451;28;20036;-87
2023/01/17 06:53:39;;;;;;;2.05;1.85;;;5.80;80.50;;;;;;5093163;28;20024;-85
2023/01/17 06:56:05;;;;;;;2.25;1.85;;;5.80;80.60;;;;;;5061705;28;20123;-86
2023/01/17 06:58:31;;;;;;;2.00;1.52;;;5.80;80.50;;;;;;5077159;28;20388;-85
2023/01/17 07:00:57;;;;;;;1.85;1.70;;;5.80;80.50;;;;;;5062056;28;20034;-85
2023/01/17 07:03:25;;;;;;;2.05;1.80;;;5.80;80.50;;;;;;5078835;28;20103;-85
2023/01/17 07:05:52;;;;;;;1.67;1.58;;;5.80;80.50;;;;;;5073981;28;20028;-86
2023/01/17 07:08:18;;;;;;;1.80;1.70;;;5.70;80.40;;;;;;5039406;28;20021;-85
2023/01/17 07:10:47;;;;;;;1.65;1.50;;;5.70;80.50;;;;;;5062614;28;20483;-86
2023/01/17 07:13:13;;;;;;;2.92;1.90;;;5.70;80.40;;;;;;5063608;28;20060;-85
2023/01/17 07:15:39;;;;;;;1.73;1.60;;;5.70;80.50;;;;;;5045548;28;20473;-85
2023/01/17 07:18:06;;;;;;;2.00;1.80;;;5.70;80.50;;;;;;5067352;28;20030;-84
2023/01/17 07:20:32;;;;;;;2.03;1.80;;;5.70;80.50;;;;;;5060194;28;20477;-85
2023/01/17 07:22:58;;;;;;;1.80;1.70;;;5.70;80.50;;;;;;5033170;28;20374;-83
2023/01/17 07:25:24;;;;;;;2.47;1.90;;;5.60;80.40;;;;;;5084072;28;20028;-84
2023/01/17 07:27:56;;;;;;;2.55;2.00;;;5.60;80.50;;;;;;5063489;28;20024;-85
2023/01/17 07:30:22;;;;;;;2.22;1.98;;;5.70;80.60;;;;;;5074194;28;20387;-85
2023/01/17 07:32:52;;;;;;;2.45;1.88;;;5.60;80.50;;;;;;5037757;28;20036;-85
2023/01/17 07:35:19;;;;;;;2.53;2.00;;;5.60;80.50;;;;;;5075305;28;20032;-84
2023/01/17 07:37:49;;;;;;;2.67;2.03;;;5.60;80.50;;;;;;5091402;28;20024;-84
2023/01/17 07:40:16;;;;;;;1.90;1.80;;;5.60;80.50;;;;;;5077763;28;20028;-85
2023/01/17 07:42:43;;;;;;;2.22;1.75;;;5.60;80.50;;;;;;5060403;28;20032;-85
2023/01/17 07:45:10;;;;;;;2.65;1.95;;;5.60;80.50;;;;;;5074573;28;20492;-85
2023/01/17 07:47:36;;;;;;;2.17;2.00;;;5.60;80.50;;;;;;5068368;28;20047;-85
2023/01/17 07:50:03;;;;;;;2.30;2.10;;;5.50;80.40;;;;;;5081464;28;20271;-85
2023/01/17 07:52:29;;;;;;;2.38;1.85;;;5.50;80.40;;;;;;5095697;28;20562;-84
2023/01/17 07:54:54;;;;;;;2.45;2.00;;;5.50;80.50;;;;;;5078055;28;20036;-85
2023/01/17 07:57:20;;;;;;;2.63;2.00;;;5.50;80.40;;;;;;5049549;28;20028;-84
2023/01/17 07:59:52;;;;;;;3.25;2.22;;;5.50;80.40;;;;;;5065639;28;20036;-83
2023/01/17 08:02:22;;;;;;;3.10;2.30;;;5.50;80.40;;;;;;5074369;28;20027;-84
2023/01/17 08:04:48;;;;;;;2.70;2.22;;;5.50;80.50;;;;;;5060588;28;20115;-83
2023/01/17 08:07:15;;;;;;;2.97;2.10;;;5.50;80.50;;;;;;5069840;28;20031;-84
2023/01/17 08:09:42;;;;;;;2.60;1.92;;;5.50;80.40;;;;;;5040001;28;20083;-83
2023/01/17 08:12:09;;;;;;;2.80;2.30;;;5.50;80.40;;;;;;5061640;28;20046;-85
2023/01/17 08:14:35;;;;;;;3.45;2.50;;;5.50;80.40;;;;;;5074147;28;20032;-85
2023/01/17 08:17:20;;;;;;;2.45;2.25;;;5.50;80.40;;;;;;5091524;28;20036;-84
2023/01/17 08:19:50;;;;;;;2.55;2.20;;;5.50;80.50;;;;;;5094262;28;20020;-84
2023/01/17 08:22:16;;;;;;;3.90;2.80;;;5.40;80.30;;;;;;5078951;28;20032;-84
2023/01/17 08:24:42;;;;;;;2.60;2.40;;;5.40;80.40;;;;;;5095371;28;20027;-85
2023/01/17 08:27:07;;;;;;;2.40;2.20;;;5.40;80.40;;;;;;5079671;28;20414;-83
2023/01/17 08:29:34;;;;;;;3.50;2.65;;;5.40;80.40;;;;;;5066343;28;20040;-84
2023/01/17 08:32:00;;;;;;;3.75;3.00;;;5.40;80.40;;;;;;5060139;28;20523;-84
2023/01/17 08:34:25;;;;;;;3.58;2.85;;;5.50;80.50;;;;;;5027476;28;20036;-84
2023/01/17 08:36:52;;;;;;;4.25;3.05;;;5.40;80.40;;;;;;5045673;28;20027;-84
2023/01/17 08:39:19;;;;;;;2.90;2.60;;;5.40;80.40;;;;;;5066080;28;20135;-84
2023/01/17 08:41:46;;;;;;;4.25;3.08;;;5.40;80.40;;;;;;5084917;28;20032;-85
2023/01/17 08:44:12;;;;;;;3.92;2.88;;;5.40;80.40;;;;;;5079688;28;20032;-84
2023/01/17 08:46:38;;;;;;;3.58;2.85;;;5.40;80.50;;;;;;5063991;28;20028;-84
2023/01/17 08:49:04;;;;;;;4.90;3.53;;;5.40;80.50;;;;;;5059502;28;20029;-84
2023/01/17 08:51:31;;;;;;;3.85;2.80;;;5.40;80.40;;;;;;5063337;28;20024;-84
2023/01/17 08:53:57;;;;;;;5.25;3.58;;;5.40;80.50;;;;;;5076506;28;20065;-85
2023/01/17 08:56:24;;;;;;;4.10;3.17;;;5.40;81.10;;;;;;5077348;28;20028;-85
2023/01/17 08:58:50;;;;;;;4.38;3.25;;;5.40;80.40;;;;;;5071182;28;20051;-85
2023/01/17 09:01:16;;;;;;;5.28;3.60;;;5.40;80.40;;;;;;5080417;28;20537;-84
2023/01/17 09:03:42;;;;;;;4.38;3.55;;;5.40;80.50;;;;;;5070028;28;20036;-85
2023/01/17 09:06:12;;;;;;;5.15;3.90;;;5.40;80.40;;;;;;5066509;28;20036;-84
2023/01/17 09:08:39;;;;;;;5.78;3.45;;;5.40;80.40;;;;;;5066633;28;20028;-84
2023/01/17 09:11:07;;;;;;;5.72;3.90;;;5.40;80.40;;;;;;5062228;28;20024;-85
2023/01/17 09:13:33;;;;;;;4.80;3.78;;;5.40;80.40;;;;;;5079896;28;20085;-85
2023/01/17 09:15:59;;;;;;;5.65;4.05;;;5.40;80.40;;;;;;5077957;28;20036;-85
2023/01/17 09:18:26;;;;;;;5.35;4.05;;;5.40;80.40;;;;;;5075890;28;20551;-85
2023/01/17 09:20:54;;;;;;;7.15;4.10;;;5.40;80.40;;;;;;5058756;28;20051;-85
2023/01/17 09:23:21;;;;;;;5.72;4.28;;;5.40;80.40;;;;;;5079855;28;20107;-85
2023/01/17 09:25:57;;;;;;;6.75;4.80;;;5.40;80.40;;;;;;5081214;28;20476;-85
2023/01/17 09:28:24;;;;;;;6.03;4.30;;;5.40;80.40;;;;;;5079262;28;20024;-85
2023/01/17 09:30:50;;;;;;;5.72;4.53;;;5.40;80.40;;;;;;5065869;28;20024;-85
2023/01/17 09:33:16;;;;;;;5.43;4.07;;;5.30;80.40;;;;;;5077795;28;20434;-86
2023/01/17 09:35:43;;;;;;;6.63;5.22;;;5.40;80.50;;;;;;5064153;28;20028;-86
2023/01/17 09:38:09;;;;;;;5.85;4.57;;;5.40;80.50;;;;;;5076340;28;20461;-86
2023/01/17 09:40:40;;;;;;;5.78;4.50;;;5.40;80.50;;;;;;5061968;28;20416;-85
2023/01/17 09:43:23;;;;;;;5.75;4.32;;;5.40;80.50;;;;;;5078464;28;20047;-86
2023/01/17 09:45:49;;;;;;;6.60;5.10;;;5.40;80.40;;;;;;5078966;28;20081;-87
2023/01/17 09:48:35;;;;;;;5.82;4.50;;;5.30;80.30;;;;;;5061883;28;20031;-86
2023/01/17 09:51:10;;;;;;;5.47;4.43;;;5.40;80.40;;;;;;5076478;28;20476;-87
2023/01/17 09:53:38;;;;;;;5.45;4.47;;;5.40;80.40;;;;;;5075959;28;20545;-86
2023/01/17 09:56:34;;;;;;;6.20;4.35;;;5.40;80.40;;;;;;5046087;28;20032;-88
2023/01/17 09:59:19;;;;;;;5.80;5.00;;;5.40;80.40;;;;;;5078230;28;20023;-87
2023/01/17 10:02:09;;;;;;;5.38;4.47;;;5.40;80.40;;;;;;5059197;28;20024;-87
2023/01/17 10:04:56;;;;;;;5.82;4.60;;;5.40;80.40;;;;;;5072518;28;20085;-85
2023/01/17 10:07:44;;;;;;;6.85;4.78;;;5.40;80.40;;;;;;5062524;28;20391;-85
2023/01/17 10:10:31;;;;;;;6.85;5.05;;;5.30;80.40;;;;;;5075612;28;20066;-86
2023/01/17 10:13:14;;;;;;;6.07;4.68;;;5.40;80.40;;;;;;5079821;28;20054;-85
2023/01/17 10:15:52;;;;;;;7.07;4.80;;;5.40;80.40;;;;;;5074638;28;20106;-85
2023/01/17 10:18:18;;;;;;;5.85;4.60;;;5.40;80.50;;;;;;5090169;28;20047;-85
2023/01/17 10:20:55;;;;;;;6.43;5.03;;;5.40;80.40;;;;;;5086933;28;20059;-85
2023/01/17 10:23:32;;;;;;;6.05;4.80;;;5.40;80.40;;;;;;5083128;28;20384;-85
2023/01/17 10:26:06;;;;;;;5.97;4.70;;;5.40;80.50;;;;;;5093825;28;20088;-85
2023/01/17 10:28:45;;;;;;;5.63;4.50;;;5.40;80.40;;;;;;5094341;28;20073;-86
2023/01/17 10:31:30;;;;;;;6.13;5.07;;;5.40;80.50;;;;;;5078401;28;20036;-86
2023/01/17 10:34:03;;;;;;;5.82;4.78;;;5.40;80.50;;;;;;5092180;28;20053;-85
2023/01/17 10:36:34;;;;;;;6.13;4.97;;;5.50;80.40;;;;;;5060189;28;20505;-87
2023/01/17 10:39:17;;;;;;;5.60;4.47;;;5.40;80.40;;;;;;5078331;28;20028;-85
2023/01/17 10:41:45;;;;;;;5.82;4.43;;;5.40;80.40;;;;;;5089301;28;20020;-85
2023/01/17 10:44:42;;;;;;;6.20;4.60;;;5.40;80.40;;;;;;5058443;28;20031;-86
2023/01/17 10:47:13;;;;;;;6.32;4.72;;;5.50;80.60;;;;;;5076349;28;20024;-85
2023/01/17 10:49:45;;;;;;;5.75;4.32;;;5.50;80.50;;;;;;5076766;28;20030;-86
2023/01/17 10:52:19;;;;;;;6.30;4.57;;;5.50;80.50;;;;;;5094601;28;20023;-86
2023/01/17 10:55:13;;;;;;;6.15;4.90;;;5.50;80.60;;;;;;5100970;28;20028;-85
2023/01/17 10:57:44;;;;;;;5.82;5.03;;;5.50;80.60;;;;;;5061681;28;20111;-85
2023/01/17 11:00:25;;;;;;;6.68;4.93;;;5.50;80.50;;;;;;5059240;28;20469;-85
2023/01/17 11:02:51;;;;;;;5.40;4.40;;;5.50;80.50;;;;;;5094689;28;20258;-85
2023/01/17 11:05:23;;;;;;;5.97;4.50;;;5.50;80.50;;;;;;5092096;28;20039;-86
2023/01/17 11:08:04;;;;;;;6.25;4.72;;;5.50;80.60;;;;;;5054572;28;20024;-85
2023/01/17 11:10:52;;;;;;;5.32;4.10;;;5.50;80.60;;;;;;5068903;28;20161;-86
2023/01/17 11:13:21;;;;;;;5.75;4.45;;;5.50;80.50;;;;;;5071473;28;20099;-86
2023/01/17 11:15:52;;;;;;;5.85;4.28;;;5.60;80.50;;;;;;5075925;28;20165;-85
2023/01/17 11:18:19;;;;;;;6.10;4.70;;;5.50;80.50;;;;;;5075860;28;20073;-87
2023/01/17 11:20:45;;;;;;;5.05;3.97;;;5.50;80.50;;;;;;5028241;28;20473;-86
2023/01/17 11:23:24;;;;;;;5.72;4.20;;;5.60;80.60;;;;;;5085109;28;20115;-86
2023/01/17 11:25:51;;;;;;;5.25;4.25;;;5.60;80.60;;;;;;5068911;28;20032;-88
2023/01/17 11:28:24;;;;;;;5.68;4.63;;;5.60;80.60;;;;;;5076102;28;20149;-87
2023/01/17 11:31:07;;;;;;;5.55;4.15;;;5.60;80.60;;;;;;5092145;28;20062;-87
2023/01/17 11:33:54;;;;;;;6.10;4.35;;;5.60;80.60;;;;;;5088104;28;20245;-88
2023/01/17 11:36:31;;;;;;;5.35;4.18;;;5.60;80.60;;;;;;5089270;28;20028;-88
2023/01/17 11:39:20;;;;;;;5.15;4.05;;;5.60;80.60;;;;;;5082358;28;20028;-88
2023/01/17 11:41:47;;;;;;;5.85;4.60;;;5.60;80.60;;;;;;5077626;28;20020;-88
2023/01/17 11:44:27;;;;;;;4.85;3.78;;;5.60;80.50;;;;;;5095672;28;20078;-87
2023/01/17 11:47:18;;;;;;;5.25;4.47;;;5.70;80.60;;;;;;5081421;28;20039;-87
2023/01/17 11:49:46;;;;;;;4.43;3.80;;;5.70;80.70;;;;;;5069931;28;20038;-86
2023/01/17 11:52:23;;;;;;;4.60;3.88;;;5.70;80.60;;;;;;5086010;28;20017;-86
2023/01/17 11:54:50;;;;;;;5.78;4.10;;;5.70;80.60;;;;;;5095095;28;20035;-85
2023/01/17 11:57:21;;;;;;;5.47;4.03;;;5.60;80.60;;;;;;5067783;28;20070;-86
2023/01/17 11:59:47;;;;;;;4.95;3.70;;;5.70;80.60;;;;;;5070905;28;20172;-87
2023/01/17 12:02:35;;;;;;;4.97;4.00;;;5.70;80.60;;;;;;5078685;28;20043;-86
2023/01/17 12:05:07;;;;;;;4.07;3.40;;;5.70;80.70;;;;;;5084374;28;20031;-86
2023/01/17 12:07:59;;;;;;;4.50;3.67;;;5.70;80.60;;;;;;5092135;28;20049;-85
2023/01/17 12:10:47;;;;;;;5.18;3.65;;;5.70;80.70;;;;;;5074933;28;20020;-85
2023/01/17 12:19:37;;;;;;;4.95;3.70;;;5.70;80.60;;;;;;5077298;28;20042;-88
2023/01/17 12:22:32;;;;;;;4.57;3.42;;;5.70;80.60;;;;;;5083575;28;20047;-87
2023/01/17 12:25:04;;;;;;;3.90;3.40;;;5.80;80.70;;;;;;5083974;28;20046;-87
2023/01/17 12:27:57;;;;;;;4.57;3.60;;;5.70;80.60;;;;;;5094697;28;20023;-86
2023/01/17 12:30:57;;;;;;;4.68;3.58;;;5.70;80.70;;;;;;5083017;28;20503;-86
2023/01/17 12:33:35;;;;;;;4.68;3.58;;;5.80;80.70;;;;;;5076531;28;20055;-86
2023/01/17 12:36:05;;;;;;;4.50;3.30;;;5.70;80.60;;;;;;5070082;28;20379;-85
2023/01/17 12:38:36;;;;;;;4.50;3.33;;;5.70;80.70;;;;;;5080681;28;20020;-85
2023/01/17 12:41:14;;;;;;;4.32;3.50;;;5.80;80.70;;;;;;5077147;28;20046;-86
2023/01/17 12:43:43;;;;;;;4.60;3.63;;;5.80;80.80;;;;;;5094314;28;20027;-87
2023/01/17 12:46:25;;;;;;;5.05;4.00;;;5.80;80.70;;;;;;5095164;28;20024;-86
2023/01/17 12:49:23;;;;;;;4.50;3.40;;;5.80;80.70;;;;;;5075178;28;20028;-86
2023/01/17 12:51:58;;;;;;;4.57;3.38;;;5.80;80.70;;;;;;5078881;28;20028;-87
2023/01/17 12:54:34;;;;;;;4.45;3.22;;;5.80;80.70;;;;;;5062117;28;20444;-86
2023/01/17 12:57:23;;;;;;;4.90;3.42;;;5.80;80.70;;;;;;5079419;28;20154;-84
2023/01/17 13:00:03;;;;;;;3.78;3.17;;;5.90;80.80;;;;;;5079107;28;20076;-86
2023/01/17 13:03:02;;;;;;;4.18;3.17;;;5.90;80.70;;;;;;5095134;28;20035;-87
2023/01/17 13:05:40;;;;;;;4.50;3.30;;;5.90;80.70;;;;;;5093559;28;20024;-85
2023/01/17 13:08:24;;;;;;;4.88;3.00;;;5.90;80.70;;;;;;5077249;28;20027;-85
2023/01/17 13:11:05;;;;;;;4.53;3.40;;;5.90;80.60;;;;;;5086289;28;20047;-86
2023/01/17 13:13:34;;;;;;;4.30;3.53;;;5.90;80.70;;;;;;5098187;28;20114;-85
2023/01/17 13:16:04;;;;;;;4.70;3.50;;;6.00;80.60;;;;;;5081117;28;20046;-86
2023/01/17 13:18:32;;;;;;;4.07;3.20;;;6.00;80.50;;;;;;5084766;28;20024;-85
2023/01/17 13:21:04;;;;;;;3.67;3.10;;;6.10;80.50;;;;;;5082859;28;20141;-85
2023/01/17 13:24:05;;;;;;;3.97;3.05;;;6.10;80.50;;;;;;5086807;28;20024;-85
2023/01/17 13:26:43;;;;;;;3.92;3.00;;;6.10;80.40;;;;;;5031642;28;20060;-85
2023/01/17 13:29:21;;;;;;;3.30;2.97;;;6.20;80.40;;;;;;5088901;28;20043;-85
2023/01/17 13:31:59;;;;;;;3.40;2.92;;;6.20;80.40;;;;;;5079430;28;20032;-85
2023/01/17 13:34:52;;;;;;;4.80;3.30;;;6.10;80.40;;;;;;5077155;28;20114;-86
2023/01/17 13:37:41;;;;;;;5.82;3.30;;;6.20;80.50;;;;;;5060187;28;20031;-85
2023/01/17 13:40:40;;;;;;;4.53;3.30;;;6.10;80.50;;;;;;5077143;28;20028;-85
2023/01/17 13:43:17;;;;;;;4.25;3.38;;;6.20;80.70;;;;;;5090800;28;20026;-85
2023/01/17 13:46:01;;;;;;;3.67;2.70;;;6.10;80.60;;;;;;5094025;28;20027;-85
2023/01/17 13:48:33;;;;;;;3.90;2.83;;;6.20;80.70;;;;;;5096463;28;20034;-85
2023/01/17 13:51:01;;;;;;;3.58;2.85;;;6.10;80.70;;;;;;5083027;28;20084;-85
2023/01/17 13:53:33;;;;;;;3.92;2.90;;;6.20;80.70;;;;;;5094652;28;20116;-85
2023/01/17 13:55:58;;;;;;;3.78;3.05;;;6.20;80.80;;;;;;5083248;28;20040;-86
2023/01/17 13:58:28;;;;;;;2.47;2.28;;;6.20;80.70;;;;;;5079466;28;20024;-85
2023/01/17 14:00:54;;;;;;;3.40;2.63;;;6.30;80.80;;;;;;5093885;28;20032;-87
2023/01/17 14:04:03;;;;;;;3.85;2.88;;;6.30;80.70;;;;;;5079307;28;20055;-85
2023/01/17 14:06:35;;;;;;;3.15;2.78;;;6.30;80.80;;;;;;4975999;28;20189;-84
2023/01/17 14:09:11;;;;;;;3.17;2.60;;;6.30;80.80;;;;;;5081969;28;20542;-85
2023/01/17 14:12:01;;;;;;;4.25;3.30;;;6.30;80.80;;;;;;5076807;28;20531;-85
2023/01/17 14:14:39;;;;;;;3.35;2.60;;;6.30;80.90;;;;;;5062132;28;20028;-86
2023/01/17 14:17:26;;;;;;;3.13;2.60;;;6.30;80.90;;;;;;5077950;28;20092;-86
2023/01/17 14:20:01;;;;;;;3.35;2.72;;;6.30;80.80;;;;;;5073805;28;20043;-86
2023/01/17 14:22:30;;;;;;;2.88;2.58;;;6.40;80.80;;;;;;5092420;28;20028;-85
2023/01/17 14:25:08;;;;;;;2.78;2.55;;;6.30;80.80;;;;;;5066985;28;20048;-85
2023/01/17 14:27:44;;;;;;;3.90;2.70;;;6.30;80.80;;;;;;5082620;28;20039;-85
2023/01/17 14:30:17;;;;;;;3.38;2.70;;;6.40;80.90;;;;;;5093228;28;20032;-85
2023/01/17 14:32:57;;;;;;;3.13;2.70;;;6.40;80.90;;;;;;5093291;28;20031;-85
2023/01/17 14:35:28;;;;;;;2.75;2.47;;;6.40;80.90;;;;;;5081739;28;20461;-84
2023/01/17 14:37:56;;;;;;;3.13;2.45;;;6.40;80.80;;;;;;5100687;28;20024;-84
2023/01/17 14:40:29;;;;;;;3.00;2.70;;;6.40;80.80;;;;;;5065046;28;20024;-84
2023/01/17 14:43:13;;;;;;;3.25;2.50;;;6.40;80.90;;;;;;5071983;28;20473;-84
2023/01/17 14:45:40;;;;;;;2.90;2.40;;;6.40;80.80;;;;;;5085348;28;20020;-84
2023/01/17 14:48:21;;;;;;;2.92;2.38;;;6.40;80.80;;;;;;5067557;28;20024;-85
2023/01/17 14:50:49;;;;;;;2.55;2.33;;;6.40;80.80;;;;;;5079276;28;20115;-85